Time;durP1;ratioP1;P1;durP2;ratioP2;P2;SDS_P1;SDS_P2;PMS_P1;PMS_P2;Temp;Humidity;BMP_temperature;BMP_pressure;BME280_temperature;BME280_humidity;BME280_pressure;Samples;Min_cycle;Max_cycle;Signal;HPM_P1;HPM_P2
2021/09/04 00:02:36;;;;;;;27.50;17.50;;;14.00;99.90;;;;;;4768820;30;20055;-80
2021/09/04 00:05:05;;;;;;;26.67;15.23;;;14.00;99.90;;;;;;4783713;29;20495;-81
2021/09/04 00:07:34;;;;;;;24.45;15.27;;;14.00;99.90;;;;;;4767403;29;20143;-81
2021/09/04 00:10:13;;;;;;;27.20;15.75;;;13.90;99.90;;;;;;4768147;30;20050;-82
2021/09/04 00:12:43;;;;;;;27.88;16.30;;;13.90;99.90;;;;;;4741613;30;20047;-82
2021/09/04 00:15:43;;;;;;;20.95;15.38;;;13.90;99.90;;;;;;4754309;30;20039;-82
2021/09/04 00:18:53;;;;;;;23.02;14.52;;;13.90;99.90;;;;;;4752854;30;20047;-82
2021/09/04 00:21:59;;;;;;;21.02;14.60;;;13.90;99.90;;;;;;4755495;30;20047;-82
2021/09/04 00:24:39;;;;;;;24.88;15.65;;;13.80;99.90;;;;;;4732008;30;20173;-81
2021/09/04 00:27:09;;;;;;;26.58;15.85;;;13.80;99.90;;;;;;4743881;30;20084;-79
2021/09/04 00:29:36;;;;;;;23.77;14.75;;;13.80;99.90;;;;;;4755232;30;20047;-78
2021/09/04 00:32:08;;;;;;;25.70;14.65;;;13.70;99.90;;;;;;4756330;29;20452;-81
2021/09/04 00:34:35;;;;;;;25.35;14.10;;;13.70;99.90;;;;;;4747285;29;20058;-79
2021/09/04 00:37:02;;;;;;;25.55;16.23;;;13.70;99.90;;;;;;4769815;29;20055;-79
2021/09/04 00:39:28;;;;;;;22.25;13.98;;;13.70;99.90;;;;;;4737973;29;20065;-81
2021/09/04 00:41:55;;;;;;;26.08;15.23;;;13.70;99.90;;;;;;4769224;29;20062;-80
2021/09/04 00:44:25;;;;;;;25.33;16.35;;;13.60;99.90;;;;;;4767183;29;20070;-82
2021/09/04 00:47:03;;;;;;;21.50;14.10;;;13.60;99.90;;;;;;4753220;29;20047;-79
2021/09/04 00:49:31;;;;;;;21.63;14.90;;;13.60;99.90;;;;;;4766700;29;20035;-80
2021/09/04 00:51:58;;;;;;;20.38;13.88;;;13.60;99.90;;;;;;4739047;30;20062;-80
2021/09/04 00:54:25;;;;;;;24.92;14.95;;;13.60;99.90;;;;;;4768278;29;20140;-79
2021/09/04 00:56:51;;;;;;;26.20;14.93;;;13.60;99.90;;;;;;4753002;29;20058;-80
2021/09/04 00:59:19;;;;;;;23.77;14.38;;;13.50;99.90;;;;;;4738967;30;20059;-81
2021/09/04 01:01:46;;;;;;;23.77;15.68;;;13.50;99.90;;;;;;4751891;30;20702;-80
2021/09/04 01:04:13;;;;;;;23.17;14.45;;;13.50;99.90;;;;;;4768272;29;20055;-79
2021/09/04 01:06:40;;;;;;;20.42;13.55;;;13.50;99.90;;;;;;4738250;30;20051;-79
2021/09/04 01:09:27;;;;;;;25.40;15.55;;;13.50;99.90;;;;;;4765436;30;20483;-81
2021/09/04 01:11:54;;;;;;;22.20;13.90;;;13.50;99.90;;;;;;4745035;30;20054;-79
2021/09/04 01:14:25;;;;;;;25.55;13.70;;;13.40;99.90;;;;;;4765908;29;20054;-79
2021/09/04 01:16:51;;;;;;;23.70;15.57;;;13.40;99.90;;;;;;4741629;29;20135;-79
2021/09/04 01:19:18;;;;;;;32.38;16.50;;;13.40;99.90;;;;;;4736474;30;20089;-80
2021/09/04 01:21:44;;;;;;;30.27;14.88;;;13.40;99.90;;;;;;4735647;29;20058;-81
2021/09/04 01:24:11;;;;;;;22.35;12.93;;;13.40;99.90;;;;;;4740703;30;20055;-86
2021/09/04 01:26:37;;;;;;;24.33;14.80;;;13.40;99.90;;;;;;4751804;30;20058;-87
2021/09/04 01:29:05;;;;;;;26.17;14.63;;;13.30;99.90;;;;;;4739146;29;20050;-85
2021/09/04 01:31:31;;;;;;;24.25;13.30;;;13.30;99.90;;;;;;4755976;29;20047;-85
2021/09/04 01:33:58;;;;;;;26.70;16.67;;;13.30;99.90;;;;;;4737442;29;20063;-87
2021/09/04 01:36:36;;;;;;;20.38;14.55;;;13.30;99.90;;;;;;4750795;29;20046;-87
2021/09/04 01:39:06;;;;;;;26.92;15.18;;;13.30;99.90;;;;;;4737373;29;20066;-86
2021/09/04 01:41:33;;;;;;;21.48;13.82;;;13.30;99.90;;;;;;4757230;30;20062;-86
2021/09/04 01:44:00;;;;;;;17.73;11.90;;;13.20;99.90;;;;;;4750511;30;20051;-85
2021/09/04 01:46:29;;;;;;;21.38;13.65;;;13.20;99.90;;;;;;4752563;29;20051;-86
2021/09/04 01:48:59;;;;;;;18.20;11.88;;;13.20;99.90;;;;;;4753922;29;20376;-86
2021/09/04 01:51:27;;;;;;;23.90;13.70;;;13.20;99.90;;;;;;4767526;29;20047;-80
2021/09/04 01:53:53;;;;;;;22.45;13.40;;;13.20;99.90;;;;;;4752141;30;20051;-80
2021/09/04 01:56:20;;;;;;;20.15;12.32;;;13.20;99.90;;;;;;4750231;30;20412;-80
2021/09/04 01:58:47;;;;;;;25.55;14.32;;;13.20;99.90;;;;;;4738703;30;20051;-87
2021/09/04 02:01:13;;;;;;;28.40;13.90;;;13.10;99.90;;;;;;4739163;29;20448;-86
2021/09/04 02:03:40;;;;;;;24.45;13.38;;;13.10;99.90;;;;;;4735870;30;20059;-85
2021/09/04 02:06:07;;;;;;;24.98;16.02;;;13.10;99.90;;;;;;4735591;30;20051;-87
2021/09/04 02:08:33;;;;;;;24.88;15.75;;;13.10;99.90;;;;;;4737612;29;20384;-87
2021/09/04 02:11:00;;;;;;;25.25;14.10;;;13.10;99.90;;;;;;4738955;29;20523;-80
2021/09/04 02:13:28;;;;;;;23.40;15.35;;;13.00;99.90;;;;;;4751707;29;20047;-79
2021/09/04 02:15:55;;;;;;;26.40;15.23;;;13.00;99.90;;;;;;4767622;30;20039;-79
2021/09/04 02:18:23;;;;;;;33.70;17.92;;;13.00;99.90;;;;;;4729946;30;20055;-79
2021/09/04 02:20:51;;;;;;;28.98;15.55;;;13.10;99.90;;;;;;4757026;30;20495;-80
2021/09/04 02:23:18;;;;;;;28.63;17.00;;;13.10;99.90;;;;;;4742020;30;20047;-86
2021/09/04 02:25:45;;;;;;;31.55;18.10;;;13.20;99.90;;;;;;4754473;30;20046;-85
2021/09/04 02:28:14;;;;;;;28.05;16.67;;;13.20;99.90;;;;;;4740001;30;20500;-86
2021/09/04 02:30:42;;;;;;;33.78;20.77;;;13.30;99.90;;;;;;4741032;29;20472;-86
2021/09/04 02:33:10;;;;;;;35.60;19.55;;;13.40;99.90;;;;;;4756475;29;20050;-86
2021/09/04 02:35:38;;;;;;;24.65;16.23;;;13.40;99.90;;;;;;4756882;29;20047;-86
2021/09/04 02:38:07;;;;;;;27.92;15.77;;;13.40;99.90;;;;;;4757309;30;20055;-80
2021/09/04 02:40:34;;;;;;;27.10;17.55;;;13.40;99.90;;;;;;4739772;30;20072;-79
2021/09/04 02:43:01;;;;;;;29.77;18.48;;;13.50;99.90;;;;;;4754692;30;20070;-80
2021/09/04 02:45:28;;;;;;;33.45;19.52;;;13.50;99.90;;;;;;4757773;29;20051;-80
2021/09/04 02:47:55;;;;;;;32.25;18.58;;;13.50;99.90;;;;;;4753229;30;20058;-86
2021/09/04 02:50:22;;;;;;;25.38;16.25;;;13.50;99.90;;;;;;4755529;29;20062;-85
2021/09/04 02:52:49;;;;;;;34.45;20.42;;;13.50;99.90;;;;;;4740379;29;20062;-86
2021/09/04 02:55:15;;;;;;;28.55;19.70;;;13.50;99.90;;;;;;4739692;29;20059;-80
2021/09/04 02:57:44;;;;;;;30.38;17.00;;;13.50;99.90;;;;;;4771972;29;20047;-86
2021/09/04 03:00:12;;;;;;;28.20;16.55;;;13.50;99.90;;;;;;4761683;30;20074;-84
2021/09/04 03:02:39;;;;;;;34.55;20.35;;;13.60;99.90;;;;;;4781060;29;20838;-87
2021/09/04 03:05:07;;;;;;;24.30;16.58;;;13.60;99.90;;;;;;4753695;30;20051;-85
2021/09/04 03:07:33;;;;;;;26.50;16.98;;;13.60;99.90;;;;;;4747426;29;20051;-86
2021/09/04 03:10:00;;;;;;;31.95;20.65;;;13.60;99.90;;;;;;4764555;29;20039;-87
2021/09/04 03:12:28;;;;;;;26.25;17.58;;;13.60;99.90;;;;;;4752049;29;20054;-87
2021/09/04 03:14:55;;;;;;;32.28;19.33;;;13.70;99.90;;;;;;4762389;29;20066;-87
2021/09/04 03:17:23;;;;;;;30.70;19.83;;;13.70;99.90;;;;;;4763852;30;20066;-87
2021/09/04 03:19:50;;;;;;;32.65;18.40;;;13.70;99.90;;;;;;4740576;29;20071;-87
2021/09/04 03:22:16;;;;;;;37.08;22.20;;;13.70;99.90;;;;;;4743795;29;20055;-86
2021/09/04 03:24:42;;;;;;;28.20;17.80;;;13.70;99.90;;;;;;4753845;30;20055;-86
2021/09/04 03:27:09;;;;;;;31.35;19.95;;;13.70;99.90;;;;;;4771051;29;20035;-88
2021/09/04 03:29:37;;;;;;;30.95;19.60;;;13.70;99.90;;;;;;4738818;30;20059;-87
2021/09/04 03:32:03;;;;;;;29.90;18.23;;;13.70;99.90;;;;;;4739557;29;20047;-86
2021/09/04 03:34:34;;;;;;;24.40;16.58;;;13.70;99.90;;;;;;4740411;30;20055;-88
2021/09/04 03:37:00;;;;;;;35.17;19.33;;;13.70;99.90;;;;;;4755732;30;20365;-86
2021/09/04 03:39:27;;;;;;;27.23;19.08;;;13.70;99.90;;;;;;4752346;29;20063;-87
2021/09/04 03:41:55;;;;;;;26.63;16.20;;;13.70;99.90;;;;;;4742033;30;20051;-80
2021/09/04 03:44:22;;;;;;;30.38;20.08;;;13.70;99.90;;;;;;4752529;30;20055;-80
2021/09/04 03:46:50;;;;;;;26.45;18.13;;;13.80;99.90;;;;;;4739880;30;20051;-80
2021/09/04 03:49:17;;;;;;;23.90;17.90;;;13.80;99.90;;;;;;4752252;29;20043;-80
2021/09/04 03:51:44;;;;;;;29.05;17.10;;;13.80;99.90;;;;;;4768722;30;20054;-86
2021/09/04 03:54:13;;;;;;;29.52;17.42;;;13.80;99.90;;;;;;4738347;30;20062;-86
2021/09/04 03:56:41;;;;;;;28.55;18.42;;;13.80;99.90;;;;;;4768777;30;20043;-86
2021/09/04 03:59:09;;;;;;;25.20;16.63;;;13.80;99.90;;;;;;4769540;29;20047;-88
2021/09/04 04:01:37;;;;;;;29.73;18.35;;;13.80;99.90;;;;;;4739243;30;20071;-86
2021/09/04 04:04:04;;;;;;;28.27;16.98;;;13.80;99.90;;;;;;4740217;29;20063;-86
2021/09/04 04:06:31;;;;;;;33.05;19.25;;;13.80;99.90;;;;;;4737442;30;20059;-87
2021/09/04 04:08:58;;;;;;;29.83;19.83;;;13.80;99.90;;;;;;4752751;30;20063;-87
2021/09/04 04:11:25;;;;;;;23.35;15.43;;;13.80;99.90;;;;;;4753740;30;20054;-87
2021/09/04 04:13:52;;;;;;;30.15;18.58;;;13.80;99.90;;;;;;4752876;30;20043;-88
2021/09/04 04:16:20;;;;;;;31.77;19.13;;;13.80;99.90;;;;;;4766836;29;20051;-88
2021/09/04 04:18:46;;;;;;;24.45;17.35;;;13.80;99.90;;;;;;4737670;29;20070;-86
2021/09/04 04:21:14;;;;;;;21.33;14.70;;;13.80;99.90;;;;;;4739971;29;20073;-87
2021/09/04 04:23:41;;;;;;;19.77;13.55;;;13.80;99.90;;;;;;4738677;29;20059;-88
2021/09/04 04:26:09;;;;;;;24.40;15.50;;;13.80;99.90;;;;;;4756423;29;20059;-87
2021/09/04 04:28:38;;;;;;;26.75;16.20;;;13.90;99.90;;;;;;4766926;30;20035;-86
2021/09/04 04:31:06;;;;;;;29.63;18.48;;;13.80;99.90;;;;;;4737924;30;20051;-86
2021/09/04 04:33:34;;;;;;;34.13;18.45;;;13.80;99.90;;;;;;4737877;30;20127;-87
2021/09/04 04:36:03;;;;;;;23.77;16.10;;;13.90;99.90;;;;;;4737769;30;20051;-87
2021/09/04 04:38:30;;;;;;;21.63;13.95;;;13.90;99.90;;;;;;4735129;30;20054;-87
2021/09/04 04:40:57;;;;;;;24.83;17.63;;;13.90;99.90;;;;;;4757061;30;20419;-88
2021/09/04 04:43:23;;;;;;;23.13;15.90;;;13.80;99.90;;;;;;4736861;30;20047;-87
2021/09/04 04:45:50;;;;;;;22.90;14.18;;;13.90;99.90;;;;;;4726252;29;20062;-87
2021/09/04 04:48:19;;;;;;;25.73;16.85;;;13.90;99.90;;;;;;4765411;30;20054;-87
2021/09/04 04:50:45;;;;;;;26.50;16.48;;;13.90;99.90;;;;;;4738190;30;20066;-85
2021/09/04 04:53:12;;;;;;;25.60;17.30;;;14.00;99.90;;;;;;4737833;30;20047;-85
2021/09/04 04:55:39;;;;;;;18.80;13.07;;;13.90;99.90;;;;;;4771310;29;20050;-88
2021/09/04 04:58:06;;;;;;;29.00;17.10;;;13.90;99.90;;;;;;4767727;29;20051;-87
2021/09/04 05:00:33;;;;;;;27.67;18.58;;;13.90;99.90;;;;;;4739340;29;20785;-86
2021/09/04 05:03:03;;;;;;;31.80;19.83;;;13.90;99.90;;;;;;4738337;30;20043;-86
2021/09/04 05:05:30;;;;;;;21.80;15.23;;;14.00;99.90;;;;;;4740855;29;20058;-88
2021/09/04 05:07:57;;;;;;;21.17;14.50;;;13.90;99.90;;;;;;4736222;30;20523;-87
2021/09/04 05:10:25;;;;;;;24.38;16.08;;;13.90;99.90;;;;;;4766366;30;20047;-88
2021/09/04 05:12:51;;;;;;;31.02;18.65;;;13.90;99.90;;;;;;4736925;29;20410;-87
2021/09/04 05:15:18;;;;;;;27.73;18.80;;;14.00;99.90;;;;;;4752304;30;20055;-89
2021/09/04 05:17:45;;;;;;;29.42;17.92;;;14.00;99.90;;;;;;4736882;30;20055;-87
2021/09/04 05:20:12;;;;;;;28.88;18.58;;;14.00;99.90;;;;;;4767113;29;20039;-88
2021/09/04 05:22:43;;;;;;;22.50;15.13;;;14.00;99.90;;;;;;4752286;30;20050;-86
2021/09/04 05:25:15;;;;;;;33.28;19.77;;;14.00;99.90;;;;;;4740376;30;20055;-87
2021/09/04 05:27:44;;;;;;;29.83;17.63;;;14.00;99.90;;;;;;4749810;29;20054;-87
2021/09/04 05:30:11;;;;;;;25.80;18.08;;;14.00;99.90;;;;;;4770386;29;20043;-85
2021/09/04 05:32:38;;;;;;;23.77;16.52;;;14.00;99.90;;;;;;4767030;29;20068;-86
2021/09/04 05:35:08;;;;;;;28.80;18.35;;;14.00;99.90;;;;;;4769868;30;20047;-87
2021/09/04 05:37:35;;;;;;;34.15;20.45;;;14.10;99.90;;;;;;4738391;29;20851;-87
2021/09/04 05:40:02;;;;;;;27.08;17.42;;;14.10;99.90;;;;;;4750754;30;20503;-86
2021/09/04 05:42:32;;;;;;;30.45;19.02;;;14.10;99.90;;;;;;4752593;29;20083;-87
2021/09/04 05:44:58;;;;;;;37.42;22.80;;;14.10;99.90;;;;;;4738274;30;20055;-86
2021/09/04 05:47:28;;;;;;;36.35;22.02;;;14.10;99.90;;;;;;4754767;29;20043;-86
2021/09/04 05:49:55;;;;;;;32.83;19.88;;;14.10;99.90;;;;;;4755176;29;20419;-89
2021/09/04 05:52:21;;;;;;;37.95;22.63;;;14.10;99.90;;;;;;4741194;29;21212;-87
2021/09/04 05:54:48;;;;;;;39.95;23.02;;;14.10;99.90;;;;;;4744139;29;20055;-85
2021/09/04 05:57:17;;;;;;;37.72;22.73;;;14.10;99.90;;;;;;4739180;30;20055;-85
2021/09/04 05:59:45;;;;;;;29.08;18.77;;;14.10;99.90;;;;;;4768812;29;20392;-86
2021/09/04 06:02:11;;;;;;;30.65;18.65;;;14.10;99.90;;;;;;4753159;29;20051;-87
2021/09/04 06:04:38;;;;;;;30.38;20.92;;;14.10;99.90;;;;;;4754365;30;20522;-87
2021/09/04 06:07:08;;;;;;;33.42;20.48;;;14.10;99.90;;;;;;4753324;30;20080;-86
2021/09/04 06:09:35;;;;;;;33.90;20.73;;;14.10;99.90;;;;;;4737923;30;21196;-88
2021/09/04 06:12:01;;;;;;;32.83;21.55;;;14.20;99.90;;;;;;4756798;30;20062;-87
2021/09/04 06:14:29;;;;;;;34.63;20.70;;;14.20;99.90;;;;;;4744037;30;20054;-87
2021/09/04 06:16:56;;;;;;;31.27;20.33;;;14.20;99.90;;;;;;4740570;29;20046;-90
2021/09/04 06:19:22;;;;;;;29.60;18.80;;;14.30;99.90;;;;;;4740130;30;20061;-87
2021/09/04 06:21:49;;;;;;;28.75;20.02;;;14.30;99.90;;;;;;4759128;29;20051;-87
2021/09/04 06:24:16;;;;;;;33.15;21.90;;;14.30;99.90;;;;;;4751863;29;20043;-88
2021/09/04 06:26:42;;;;;;;35.17;23.25;;;14.40;99.90;;;;;;4768696;29;20043;-87
2021/09/04 06:29:09;;;;;;;33.92;21.48;;;14.40;99.90;;;;;;4750219;30;20044;-87
2021/09/04 06:31:36;;;;;;;30.83;19.85;;;14.40;99.90;;;;;;4769074;29;20073;-87
2021/09/04 06:34:03;;;;;;;31.20;20.20;;;14.40;99.90;;;;;;4765577;30;20063;-88
2021/09/04 06:36:29;;;;;;;30.75;20.70;;;14.50;99.90;;;;;;4765539;30;20051;-88
2021/09/04 06:38:56;;;;;;;35.28;22.48;;;14.50;99.90;;;;;;4736272;30;20055;-87
2021/09/04 06:41:23;;;;;;;34.03;20.48;;;14.50;99.90;;;;;;4751469;30;20101;-86
2021/09/04 06:43:50;;;;;;;31.15;19.60;;;14.50;99.90;;;;;;4767455;30;20079;-88
2021/09/04 06:46:16;;;;;;;29.23;17.92;;;14.60;99.90;;;;;;4733891;30;20495;-86
2021/09/04 06:48:43;;;;;;;26.13;17.98;;;14.60;99.90;;;;;;4762791;30;20420;-86
2021/09/04 06:51:10;;;;;;;25.55;18.40;;;14.70;99.90;;;;;;4765432;30;20074;-86
2021/09/04 06:53:37;;;;;;;31.65;20.52;;;14.80;99.90;;;;;;4752609;29;20053;-87
2021/09/04 06:56:04;;;;;;;29.52;19.13;;;14.80;99.90;;;;;;4736348;30;20531;-86
2021/09/04 06:58:42;;;;;;;30.35;19.98;;;14.90;99.90;;;;;;4750294;30;20063;-85
2021/09/04 07:01:11;;;;;;;23.95;17.60;;;14.90;99.90;;;;;;4736004;29;20059;-87
2021/09/04 07:03:38;;;;;;;24.20;17.42;;;14.90;99.90;;;;;;4770026;29;20059;-87
2021/09/04 07:06:04;;;;;;;25.02;17.60;;;15.00;99.90;;;;;;4753589;30;20492;-87
2021/09/04 07:08:31;;;;;;;27.25;19.90;;;15.10;99.90;;;;;;4756153;30;20047;-85
2021/09/04 07:10:58;;;;;;;29.67;20.90;;;15.10;99.90;;;;;;4771860;29;20166;-86
2021/09/04 07:13:24;;;;;;;22.23;16.33;;;15.10;99.90;;;;;;4747812;29;20042;-86
2021/09/04 07:15:54;;;;;;;22.20;15.55;;;15.10;99.90;;;;;;4740179;30;20059;-86
2021/09/04 07:18:21;;;;;;;23.58;16.90;;;15.20;99.90;;;;;;4767731;30;20051;-86
2021/09/04 07:20:48;;;;;;;28.88;19.52;;;15.30;99.90;;;;;;4755172;29;20058;-87
2021/09/04 07:23:14;;;;;;;20.88;15.07;;;15.40;99.90;;;;;;4738238;29;20408;-87
2021/09/04 07:25:44;;;;;;;24.58;18.17;;;15.40;99.90;;;;;;4747870;29;20055;-86
2021/09/04 07:28:11;;;;;;;21.27;15.10;;;15.40;99.90;;;;;;4753150;29;20047;-87
2021/09/04 07:30:37;;;;;;;21.52;14.60;;;15.50;99.90;;;;;;4741575;29;20533;-87
2021/09/04 07:33:04;;;;;;;21.50;14.95;;;15.60;99.90;;;;;;4764842;29;20054;-88
2021/09/04 07:35:32;;;;;;;20.58;15.65;;;15.70;99.90;;;;;;4743538;30;20059;-86
2021/09/04 07:38:19;;;;;;;23.98;15.00;;;15.80;99.90;;;;;;4754078;29;20054;-85
2021/09/04 07:40:48;;;;;;;19.33;14.05;;;15.80;99.90;;;;;;4749337;29;20063;-82
2021/09/04 07:43:51;;;;;;;19.38;14.73;;;15.90;99.90;;;;;;4751663;30;20066;-82
2021/09/04 07:46:46;;;;;;;19.98;13.95;;;15.90;99.90;;;;;;4739034;30;20076;-82
2021/09/04 07:49:29;;;;;;;16.70;12.73;;;15.90;99.90;;;;;;4741635;30;20047;-83
2021/09/04 07:52:02;;;;;;;21.10;14.98;;;15.90;99.90;;;;;;4741211;30;20138;-82
2021/09/04 07:54:59;;;;;;;20.25;15.32;;;15.90;99.90;;;;;;4753965;29;20055;-82
2021/09/04 07:57:33;;;;;;;20.77;15.32;;;15.90;99.90;;;;;;4713792;30;20053;-82
2021/09/04 08:00:04;;;;;;;17.45;13.38;;;16.00;99.90;;;;;;4705071;30;20088;-81
2021/09/04 08:02:39;;;;;;;20.27;13.25;;;16.00;99.90;;;;;;4718135;30;20061;-81
2021/09/04 08:05:12;;;;;;;16.95;12.80;;;16.10;99.90;;;;;;4719147;30;20524;-80
2021/09/04 08:07:42;;;;;;;18.90;12.55;;;16.10;99.90;;;;;;4734323;30;20068;-81
2021/09/04 08:10:08;;;;;;;17.75;14.32;;;16.20;99.90;;;;;;4713508;30;20048;-84
2021/09/04 08:12:35;;;;;;;21.42;14.43;;;16.20;99.90;;;;;;4710565;30;20053;-80
2021/09/04 08:15:03;;;;;;;17.88;13.73;;;16.20;99.90;;;;;;4701646;30;20048;-85
2021/09/04 08:17:30;;;;;;;16.67;11.45;;;16.20;99.90;;;;;;4708677;30;20631;-80
2021/09/04 08:19:56;;;;;;;17.80;12.15;;;16.20;99.90;;;;;;4695611;30;20057;-80
2021/09/04 08:22:23;;;;;;;19.65;13.18;;;16.30;99.90;;;;;;4724085;30;20079;-86
2021/09/04 08:24:49;;;;;;;17.70;12.25;;;16.50;99.90;;;;;;4707993;30;20063;-85
2021/09/04 08:27:16;;;;;;;15.30;11.10;;;16.50;99.90;;;;;;4716412;30;20051;-85
2021/09/04 08:29:42;;;;;;;19.13;12.75;;;16.60;99.90;;;;;;4752669;30;20055;-84
2021/09/04 08:32:09;;;;;;;18.10;11.90;;;16.70;99.90;;;;;;4769614;30;20046;-84
2021/09/04 08:34:35;;;;;;;14.02;10.10;;;16.80;99.90;;;;;;4754580;30;20262;-81
2021/09/04 08:37:03;;;;;;;14.90;9.63;;;16.90;99.90;;;;;;4738903;30;20047;-81
2021/09/04 08:39:29;;;;;;;13.45;9.43;;;17.00;99.90;;;;;;4741980;29;20055;-85
2021/09/04 08:41:56;;;;;;;16.45;12.43;;;17.20;99.90;;;;;;4754862;30;20039;-86
2021/09/04 08:44:23;;;;;;;13.52;9.80;;;17.40;99.90;;;;;;4739370;29;20067;-81
2021/09/04 08:46:51;;;;;;;13.00;9.18;;;17.70;99.90;;;;;;4741285;30;20051;-81
2021/09/04 08:49:18;;;;;;;18.02;12.82;;;17.90;99.90;;;;;;4737984;29;20508;-83
2021/09/04 08:51:47;;;;;;;19.73;12.05;;;18.10;99.90;;;;;;4744213;29;20058;-84
2021/09/04 08:54:18;;;;;;;10.68;9.05;;;18.40;99.80;;;;;;4751263;30;20919;-87
2021/09/04 08:56:50;;;;;;;11.52;9.07;;;18.60;99.50;;;;;;4764783;29;20060;-83
2021/09/04 08:59:16;;;;;;;15.02;9.63;;;18.90;99.30;;;;;;4763237;30;20063;-85
2021/09/04 09:01:45;;;;;;;14.60;10.27;;;19.20;98.90;;;;;;4721177;30;20055;-84
2021/09/04 09:04:35;;;;;;;11.35;8.48;;;19.40;98.00;;;;;;4738366;30;20055;-84
2021/09/04 09:07:49;;;;;;;11.70;7.93;;;19.50;97.80;;;;;;4738039;30;20047;-83
2021/09/04 09:10:22;;;;;;;12.95;7.15;;;19.60;97.80;;;;;;4746860;30;20079;-84
2021/09/04 09:12:49;;;;;;;15.07;10.10;;;19.70;97.90;;;;;;4749480;30;20401;-84
2021/09/04 09:15:23;;;;;;;12.85;8.98;;;19.80;97.30;;;;;;4733449;30;20472;-84
2021/09/04 09:18:06;;;;;;;15.27;9.05;;;19.80;96.80;;;;;;4741329;30;20052;-82
2021/09/04 09:20:34;;;;;;;12.57;9.57;;;19.80;96.70;;;;;;4746782;30;20055;-82
2021/09/04 09:23:06;;;;;;;11.02;7.93;;;19.90;95.90;;;;;;4747244;30;20047;-85
2021/09/04 09:25:34;;;;;;;10.60;8.30;;;19.70;96.00;;;;;;4747641;30;20062;-85
2021/09/04 09:28:03;;;;;;;10.15;7.28;;;19.70;96.00;;;;;;4736207;29;20058;-81
2021/09/04 09:30:35;;;;;;;9.75;7.28;;;19.70;96.20;;;;;;4766501;30;20036;-81
2021/09/04 09:33:03;;;;;;;11.18;7.70;;;19.80;96.20;;;;;;4774659;29;20039;-83
2021/09/04 09:35:32;;;;;;;11.20;8.63;;;19.90;95.90;;;;;;4750637;30;20058;-82
2021/09/04 09:38:03;;;;;;;11.93;9.23;;;19.90;95.60;;;;;;4764199;29;20054;-82
2021/09/04 09:40:30;;;;;;;12.73;8.07;;;20.00;95.40;;;;;;4753657;30;20051;-83
2021/09/04 09:42:57;;;;;;;10.73;7.95;;;19.90;95.40;;;;;;4741453;29;20057;-83
2021/09/04 09:45:56;;;;;;;12.23;8.82;;;19.90;95.30;;;;;;4750818;30;20066;-83
2021/09/04 09:48:26;;;;;;;13.05;10.02;;;20.00;95.20;;;;;;4756095;30;20043;-83
2021/09/04 09:50:55;;;;;;;13.43;9.60;;;20.00;94.90;;;;;;4737541;30;20054;-83
2021/09/04 09:53:22;;;;;;;12.60;8.77;;;20.00;94.60;;;;;;4750875;30;20400;-79
2021/09/04 09:55:52;;;;;;;13.18;9.10;;;20.00;94.80;;;;;;4740902;29;20066;-78
2021/09/04 09:58:21;;;;;;;10.35;8.80;;;20.10;94.70;;;;;;4751280;29;20044;-78
2021/09/04 10:00:50;;;;;;;12.15;9.20;;;20.00;94.70;;;;;;4768017;29;20058;-79
2021/09/04 10:03:19;;;;;;;11.93;8.23;;;20.20;94.90;;;;;;4750876;29;20421;-78
2021/09/04 10:05:46;;;;;;;12.30;9.40;;;20.40;95.00;;;;;;4735931;30;20051;-79
2021/09/04 10:08:19;;;;;;;14.18;9.07;;;20.60;94.60;;;;;;4754978;29;20058;-79
2021/09/04 10:10:47;;;;;;;13.63;9.70;;;20.60;94.30;;;;;;4744758;29;20923;-79
2021/09/04 10:13:15;;;;;;;13.45;8.77;;;20.70;93.60;;;;;;4767401;30;20035;-82
2021/09/04 10:15:51;;;;;;;10.50;7.65;;;20.80;93.80;;;;;;4766916;30;20058;-81
2021/09/04 10:18:23;;;;;;;10.23;7.35;;;20.90;93.70;;;;;;4749591;30;20047;-81
2021/09/04 10:21:04;;;;;;;12.10;7.75;;;21.10;94.00;;;;;;4752377;29;20051;-84
2021/09/04 10:23:31;;;;;;;14.27;8.23;;;21.40;94.10;;;;;;4755280;29;20054;-86
2021/09/04 10:26:27;;;;;;;11.35;8.15;;;21.70;92.90;;;;;;4761029;29;20316;-78
2021/09/04 10:29:05;;;;;;;12.65;7.32;;;21.80;92.40;;;;;;4768903;29;20042;-78
2021/09/04 10:31:54;;;;;;;12.73;9.60;;;21.90;92.00;;;;;;4756258;29;20054;-78
2021/09/04 10:34:28;;;;;;;12.38;8.15;;;22.10;91.80;;;;;;4769133;30;20049;-90
2021/09/04 10:37:14;;;;;;;10.45;6.63;;;22.20;91.20;;;;;;4758684;30;20060;-88
2021/09/04 10:39:54;;;;;;;9.40;7.28;;;22.40;91.10;;;;;;4747721;30;20062;-80
2021/09/04 10:42:25;;;;;;;10.88;6.65;;;22.60;90.60;;;;;;4759221;29;20059;-80
2021/09/04 10:45:01;;;;;;;14.60;7.60;;;22.80;90.80;;;;;;4759653;29;20448;-80
2021/09/04 10:47:40;;;;;;;11.60;6.97;;;23.20;90.10;;;;;;4760332;29;20055;-80
2021/09/04 10:50:17;;;;;;;10.88;7.00;;;23.50;90.00;;;;;;4771812;29;20047;-80
2021/09/04 10:52:49;;;;;;;10.23;6.95;;;23.90;89.00;;;;;;4756768;29;20613;-80
2021/09/04 10:55:30;;;;;;;10.55;7.30;;;24.30;87.20;;;;;;4755955;30;20047;-84
2021/09/04 10:58:17;;;;;;;9.27;6.53;;;24.50;84.20;;;;;;4756277;30;20554;-85
2021/09/04 11:00:44;;;;;;;8.85;6.93;;;24.60;85.10;;;;;;4770005;29;20510;-79
2021/09/04 11:03:19;;;;;;;7.32;5.85;;;24.80;82.70;;;;;;4773965;29;20838;-79
2021/09/04 11:05:48;;;;;;;8.63;6.00;;;25.00;83.20;;;;;;4759371;29;20051;-79
2021/09/04 11:08:21;;;;;;;8.65;6.93;;;25.20;81.70;;;;;;4768037;30;20035;-79
2021/09/04 11:10:49;;;;;;;7.75;5.75;;;25.40;80.30;;;;;;4759937;29;20047;-81
2021/09/04 11:13:17;;;;;;;10.20;6.38;;;25.60;79.20;;;;;;4743542;29;20039;-80
2021/09/04 11:15:46;;;;;;;6.45;5.72;;;25.70;77.70;;;;;;4755800;30;20059;-80
2021/09/04 11:18:14;;;;;;;9.48;6.20;;;25.80;77.20;;;;;;4752260;29;20054;-79
2021/09/04 11:20:45;;;;;;;9.20;6.43;;;25.90;76.20;;;;;;4739957;30;20207;-81
2021/09/04 11:23:25;;;;;;;9.82;6.05;;;26.00;76.30;;;;;;4754096;30;20058;-80
2021/09/04 11:25:52;;;;;;;9.68;6.57;;;26.30;75.40;;;;;;4755198;30;20903;-80
2021/09/04 11:28:32;;;;;;;8.35;5.78;;;26.70;75.10;;;;;;4769756;30;20048;-80
2021/09/04 11:30:59;;;;;;;6.53;5.82;;;27.00;73.40;;;;;;4771358;29;20062;-79
2021/09/04 11:33:26;;;;;;;6.57;5.70;;;27.10;72.20;;;;;;4742563;30;20476;-80
2021/09/04 11:35:56;;;;;;;6.95;5.65;;;27.40;73.00;;;;;;4737579;30;20384;-81
2021/09/04 11:38:24;;;;;;;9.48;7.05;;;27.80;72.10;;;;;;4752561;29;20047;-80
2021/09/04 11:40:56;;;;;;;8.13;5.93;;;28.00;68.20;;;;;;4767787;30;20058;-85
2021/09/04 11:43:26;;;;;;;8.32;6.07;;;28.00;67.90;;;;;;4755274;30;20460;-83
2021/09/04 11:46:04;;;;;;;7.78;6.25;;;28.00;67.50;;;;;;4754085;29;20059;-83
2021/09/04 11:48:31;;;;;;;7.50;6.28;;;28.20;67.20;;;;;;4750431;30;20058;-83
2021/09/04 11:51:07;;;;;;;7.85;6.13;;;28.30;66.80;;;;;;4741003;29;20054;-79
2021/09/04 11:53:34;;;;;;;8.75;7.30;;;28.60;66.20;;;;;;4756690;29;20043;-79
2021/09/04 11:56:01;;;;;;;10.93;6.90;;;28.90;64.70;;;;;;4759918;29;20047;-79
2021/09/04 11:58:27;;;;;;;9.02;6.55;;;29.10;63.40;;;;;;4738275;30;20051;-79
2021/09/04 12:01:05;;;;;;;7.10;6.13;;;29.20;63.10;;;;;;4754428;29;20460;-80
2021/09/04 12:03:35;;;;;;;7.97;6.30;;;29.60;63.10;;;;;;4766607;29;20047;-79
2021/09/04 12:06:11;;;;;;;17.63;10.15;;;30.00;62.40;;;;;;4769665;29;20492;-79
2021/09/04 12:08:38;;;;;;;6.80;5.95;;;30.20;61.00;;;;;;4753669;30;20047;-79
2021/09/04 12:11:07;;;;;;;7.72;5.95;;;30.40;60.90;;;;;;4756109;29;20054;-83
2021/09/04 12:13:34;;;;;;;8.13;6.22;;;30.60;59.90;;;;;;4752955;29;20047;-84
2021/09/04 12:16:06;;;;;;;8.27;6.93;;;30.70;58.90;;;;;;4766715;30;20400;-80
2021/09/04 12:18:42;;;;;;;6.95;5.35;;;30.80;57.60;;;;;;4769564;29;20047;-79
2021/09/04 12:21:21;;;;;;;6.82;5.80;;;30.50;57.80;;;;;;4768842;30;20063;-79
2021/09/04 12:23:51;;;;;;;7.13;5.63;;;30.70;57.70;;;;;;4752677;30;20051;-80
2021/09/04 12:26:18;;;;;;;8.57;6.07;;;30.70;56.90;;;;;;4754201;30;20395;-79
2021/09/04 12:28:45;;;;;;;8.02;6.35;;;30.30;57.20;;;;;;4738764;29;20054;-79
2021/09/04 12:31:15;;;;;;;7.55;6.45;;;30.00;57.30;;;;;;4752840;30;20424;-85
2021/09/04 12:33:50;;;;;;;7.78;6.88;;;30.10;57.30;;;;;;4752095;30;20054;-84
2021/09/04 12:36:27;;;;;;;7.85;5.78;;;30.40;56.40;;;;;;4755494;30;20051;-85
2021/09/04 12:42:13;;;;;;;8.73;6.70;;;31.30;54.80;;;;;;4751903;29;20066;-80
2021/09/04 12:44:45;;;;;;;7.07;6.28;;;31.40;54.10;;;;;;4751711;30;20060;-80
2021/09/04 12:47:14;;;;;;;7.90;6.93;;;31.60;54.10;;;;;;4751682;30;20047;-81
2021/09/04 12:49:52;;;;;;;10.32;6.30;;;31.90;52.80;;;;;;4738426;30;20043;-81